Terminal Aerodrome Forecast
Issued by NWS Amarillo, TX

Home | Current Version | Previous Version | Text Only | Print | Product List | Glossary On
Versions: 1 2 3 4 5 6 7 8 9 10 11 12 13 14 15 16 17 18 19 20 21 22
000
FTUS44 KAMA 311700
TAFDHT
TAF
KDHT 311732Z 3118/0118 22012KT P6SM BKN010
      TEMPO 3118/3120 BKN005
     FM010000 24006KT P6SM OVC010
     FM010600 36011KT P6SM SCT010 BKN050
     FM011600 36018G28KT P6SM FEW200=

USA.gov is the U.S. government's official web portal to all federal, state and local government web resources and services.